sensor_id;sensor_type;location;lat;lon;timestamp;P1;durP1;ratioP1;P2;durP2;ratioP2
63032;SDS011;49121;38.932;-9.018;2022-08-03T00:01:03;17.42;;;6.00;;
63032;SDS011;49121;38.932;-9.018;2022-08-03T00:03:23;18.30;;;5.38;;
63032;SDS011;49121;38.932;-9.018;2022-08-03T00:05:42;15.88;;;5.47;;
63032;SDS011;49121;38.932;-9.018;2022-08-03T00:07:46;19.13;;;6.45;;
63032;SDS011;49121;38.932;-9.018;2022-08-03T00:09:46;16.13;;;7.03;;
63032;SDS011;49121;38.932;-9.018;2022-08-03T00:11:47;19.33;;;6.45;;
63032;SDS011;49121;38.932;-9.018;2022-08-03T00:13:47;16.42;;;6.22;;
63032;SDS011;49121;38.932;-9.018;2022-08-03T00:15:48;17.85;;;6.57;;
63032;SDS011;49121;38.932;-9.018;2022-08-03T00:17:49;21.40;;;6.47;;
63032;SDS011;49121;38.932;-9.018;2022-08-03T00:19:50;16.70;;;5.88;;
63032;SDS011;49121;38.932;-9.018;2022-08-03T00:21:50;19.20;;;5.88;;
63032;SDS011;49121;38.932;-9.018;2022-08-03T00:23:51;20.58;;;6.57;;
63032;SDS011;49121;38.932;-9.018;2022-08-03T00:25:52;18.20;;;5.95;;
63032;SDS011;49121;38.932;-9.018;2022-08-03T00:27:52;17.10;;;6.30;;
63032;SDS011;49121;38.932;-9.018;2022-08-03T00:29:53;11.75;;;5.40;;
63032;SDS011;49121;38.932;-9.018;2022-08-03T00:31:54;18.25;;;5.93;;
63032;SDS011;49121;38.932;-9.018;2022-08-03T00:33:54;13.27;;;6.13;;
63032;SDS011;49121;38.932;-9.018;2022-08-03T00:35:55;12.45;;;5.43;;
63032;SDS011;49121;38.932;-9.018;2022-08-03T00:37:55;13.40;;;6.28;;
63032;SDS011;49121;38.932;-9.018;2022-08-03T00:39:56;14.73;;;6.05;;
63032;SDS011;49121;38.932;-9.018;2022-08-03T00:42:00;16.83;;;6.35;;
63032;SDS011;49121;38.932;-9.018;2022-08-03T00:44:38;16.33;;;5.20;;
63032;SDS011;49121;38.932;-9.018;2022-08-03T00:46:40;11.50;;;5.68;;
63032;SDS011;49121;38.932;-9.018;2022-08-03T00:48:59;11.05;;;6.18;;
63032;SDS011;49121;38.932;-9.018;2022-08-03T00:50:59;19.48;;;6.28;;
63032;SDS011;49121;38.932;-9.018;2022-08-03T00:53:01;9.55;;;5.03;;
63032;SDS011;49121;38.932;-9.018;2022-08-03T00:55:04;11.00;;;5.63;;
63032;SDS011;49121;38.932;-9.018;2022-08-03T00:57:05;11.52;;;5.55;;
63032;SDS011;49121;38.932;-9.018;2022-08-03T00:59:09;12.18;;;5.25;;
63032;SDS011;49121;38.932;-9.018;2022-08-03T01:01:09;9.40;;;4.95;;
63032;SDS011;49121;38.932;-9.018;2022-08-03T01:03:11;14.13;;;5.22;;
63032;SDS011;49121;38.932;-9.018;2022-08-03T01:05:12;15.95;;;5.57;;
63032;SDS011;49121;38.932;-9.018;2022-08-03T01:10:05;13.95;;;5.95;;
63032;SDS011;49121;38.932;-9.018;2022-08-03T01:12:18;21.20;;;5.10;;
63032;SDS011;49121;38.932;-9.018;2022-08-03T01:27:20;14.38;;;5.60;;
63032;SDS011;49121;38.932;-9.018;2022-08-03T01:30:01;12.65;;;5.28;;
63032;SDS011;49121;38.932;-9.018;2022-08-03T01:32:11;10.38;;;5.53;;
63032;SDS011;49121;38.932;-9.018;2022-08-03T01:34:27;8.30;;;4.93;;
63032;SDS011;49121;38.932;-9.018;2022-08-03T01:36:32;10.88;;;4.82;;
63032;SDS011;49121;38.932;-9.018;2022-08-03T01:38:53;11.13;;;5.45;;
63032;SDS011;49121;38.932;-9.018;2022-08-03T01:41:12;16.58;;;5.90;;
63032;SDS011;49121;38.932;-9.018;2022-08-03T01:43:18;12.32;;;5.05;;
63032;SDS011;49121;38.932;-9.018;2022-08-03T01:45:22;11.05;;;5.40;;
63032;SDS011;49121;38.932;-9.018;2022-08-03T01:47:24;12.02;;;5.47;;
63032;SDS011;49121;38.932;-9.018;2022-08-03T01:49:27;10.55;;;5.45;;
63032;SDS011;49121;38.932;-9.018;2022-08-03T01:51:58;10.73;;;5.32;;
63032;SDS011;49121;38.932;-9.018;2022-08-03T01:54:00;10.43;;;5.32;;
63032;SDS011;49121;38.932;-9.018;2022-08-03T01:56:02;10.15;;;5.50;;
63032;SDS011;49121;38.932;-9.018;2022-08-03T01:58:04;10.65;;;5.13;;
63032;SDS011;49121;38.932;-9.018;2022-08-03T02:00:07;9.07;;;5.18;;
63032;SDS011;49121;38.932;-9.018;2022-08-03T02:02:11;14.00;;;5.82;;
63032;SDS011;49121;38.932;-9.018;2022-08-03T02:04:18;14.57;;;5.70;;
63032;SDS011;49121;38.932;-9.018;2022-08-03T02:06:19;13.50;;;5.32;;
63032;SDS011;49121;38.932;-9.018;2022-08-03T02:08:25;16.02;;;5.82;;
63032;SDS011;49121;38.932;-9.018;2022-08-03T02:10:28;16.92;;;5.20;;
63032;SDS011;49121;38.932;-9.018;2022-08-03T02:12:33;15.82;;;6.00;;
63032;SDS011;49121;38.932;-9.018;2022-08-03T02:14:35;14.73;;;5.68;;
63032;SDS011;49121;38.932;-9.018;2022-08-03T02:16:36;12.55;;;5.32;;
63032;SDS011;49121;38.932;-9.018;2022-08-03T02:18:37;13.35;;;6.53;;
63032;SDS011;49121;38.932;-9.018;2022-08-03T02:20:40;13.75;;;6.88;;
63032;SDS011;49121;38.932;-9.018;2022-08-03T02:22:43;12.20;;;6.00;;
63032;SDS011;49121;38.932;-9.018;2022-08-03T02:24:45;14.13;;;6.10;;
63032;SDS011;49121;38.932;-9.018;2022-08-03T02:26:46;14.43;;;6.97;;
63032;SDS011;49121;38.932;-9.018;2022-08-03T02:29:10;14.45;;;6.22;;
63032;SDS011;49121;38.932;-9.018;2022-08-03T02:31:17;18.30;;;6.72;;
63032;SDS011;49121;38.932;-9.018;2022-08-03T02:35:43;9.05;;;5.88;;
63032;SDS011;49121;38.932;-9.018;2022-08-03T02:37:47;14.85;;;6.18;;
63032;SDS011;49121;38.932;-9.018;2022-08-03T02:44:38;14.93;;;6.55;;
63032;SDS011;49121;38.932;-9.018;2022-08-03T02:47:02;17.38;;;6.93;;
63032;SDS011;49121;38.932;-9.018;2022-08-03T02:49:27;18.08;;;7.32;;
63032;SDS011;49121;38.932;-9.018;2022-08-03T02:51:30;14.05;;;6.40;;
63032;SDS011;49121;38.932;-9.018;2022-08-03T02:53:32;19.40;;;6.75;;
63032;SDS011;49121;38.932;-9.018;2022-08-03T02:55:34;13.65;;;7.03;;
63032;SDS011;49121;38.932;-9.018;2022-08-03T02:57:35;18.15;;;6.88;;
63032;SDS011;49121;38.932;-9.018;2022-08-03T02:59:56;15.48;;;7.63;;
63032;SDS011;49121;38.932;-9.018;2022-08-03T03:01:59;19.02;;;7.90;;
63032;SDS011;49121;38.932;-9.018;2022-08-03T03:04:01;16.75;;;6.82;;
63032;SDS011;49121;38.932;-9.018;2022-08-03T03:06:02;19.38;;;7.45;;
63032;SDS011;49121;38.932;-9.018;2022-08-03T03:08:04;16.63;;;6.70;;
63032;SDS011;49121;38.932;-9.018;2022-08-03T03:10:05;19.25;;;6.07;;
63032;SDS011;49121;38.932;-9.018;2022-08-03T03:19:24;15.15;;;6.20;;
63032;SDS011;49121;38.932;-9.018;2022-08-03T03:21:44;8.50;;;4.85;;
63032;SDS011;49121;38.932;-9.018;2022-08-03T03:26:25;11.05;;;5.38;;
63032;SDS011;49121;38.932;-9.018;2022-08-03T03:28:26;14.23;;;6.00;;
63032;SDS011;49121;38.932;-9.018;2022-08-03T03:30:28;11.07;;;5.05;;
63032;SDS011;49121;38.932;-9.018;2022-08-03T03:32:29;11.77;;;5.45;;
63032;SDS011;49121;38.932;-9.018;2022-08-03T03:34:30;9.02;;;4.53;;
63032;SDS011;49121;38.932;-9.018;2022-08-03T03:36:32;15.07;;;5.32;;
63032;SDS011;49121;38.932;-9.018;2022-08-03T03:38:33;11.10;;;5.22;;
63032;SDS011;49121;38.932;-9.018;2022-08-03T03:40:34;10.50;;;5.72;;
63032;SDS011;49121;38.932;-9.018;2022-08-03T03:42:35;14.05;;;5.38;;
63032;SDS011;49121;38.932;-9.018;2022-08-03T03:44:37;11.95;;;5.28;;
63032;SDS011;49121;38.932;-9.018;2022-08-03T03:46:38;9.60;;;5.10;;
63032;SDS011;49121;38.932;-9.018;2022-08-03T03:48:39;12.63;;;5.30;;
63032;SDS011;49121;38.932;-9.018;2022-08-03T03:50:40;11.63;;;4.50;;
63032;SDS011;49121;38.932;-9.018;2022-08-03T03:52:40;9.30;;;4.97;;
63032;SDS011;49121;38.932;-9.018;2022-08-03T03:54:41;9.13;;;5.45;;
63032;SDS011;49121;38.932;-9.018;2022-08-03T03:56:44;13.52;;;5.57;;
63032;SDS011;49121;38.932;-9.018;2022-08-03T03:58:44;11.80;;;6.10;;
63032;SDS011;49121;38.932;-9.018;2022-08-03T04:01:03;14.30;;;6.35;;
63032;SDS011;49121;38.932;-9.018;2022-08-03T04:03:04;14.88;;;4.90;;
63032;SDS011;49121;38.932;-9.018;2022-08-03T04:05:05;11.93;;;4.45;;
63032;SDS011;49121;38.932;-9.018;2022-08-03T04:07:25;6.22;;;4.15;;
63032;SDS011;49121;38.932;-9.018;2022-08-03T04:09:45;8.95;;;5.00;;
63032;SDS011;49121;38.932;-9.018;2022-08-03T04:12:05;7.43;;;4.70;;
63032;SDS011;49121;38.932;-9.018;2022-08-03T04:14:26;8.73;;;4.40;;
63032;SDS011;49121;38.932;-9.018;2022-08-03T04:16:36;7.18;;;4.97;;
63032;SDS011;49121;38.932;-9.018;2022-08-03T04:18:43;7.07;;;4.82;;
63032;SDS011;49121;38.932;-9.018;2022-08-03T04:20:48;8.57;;;4.28;;
63032;SDS011;49121;38.932;-9.018;2022-08-03T04:22:51;8.13;;;4.65;;
63032;SDS011;49121;38.932;-9.018;2022-08-03T04:25:04;6.63;;;4.15;;
63032;SDS011;49121;38.932;-9.018;2022-08-03T04:27:08;8.88;;;4.88;;
63032;SDS011;49121;38.932;-9.018;2022-08-03T04:29:32;8.50;;;5.15;;
63032;SDS011;49121;38.932;-9.018;2022-08-03T04:31:36;9.00;;;5.68;;
63032;SDS011;49121;38.932;-9.018;2022-08-03T04:33:38;10.13;;;5.10;;
63032;SDS011;49121;38.932;-9.018;2022-08-03T04:35:42;8.95;;;5.07;;
63032;SDS011;49121;38.932;-9.018;2022-08-03T04:37:47;11.68;;;5.30;;
63032;SDS011;49121;38.932;-9.018;2022-08-03T04:39:50;9.95;;;5.72;;
63032;SDS011;49121;38.932;-9.018;2022-08-03T04:41:56;10.45;;;5.28;;
63032;SDS011;49121;38.932;-9.018;2022-08-03T04:43:59;12.38;;;5.13;;
63032;SDS011;49121;38.932;-9.018;2022-08-03T04:46:01;9.80;;;5.88;;
63032;SDS011;49121;38.932;-9.018;2022-08-03T04:48:03;10.95;;;5.90;;
63032;SDS011;49121;38.932;-9.018;2022-08-03T04:50:05;12.48;;;6.15;;
63032;SDS011;49121;38.932;-9.018;2022-08-03T04:52:06;15.68;;;5.93;;
63032;SDS011;49121;38.932;-9.018;2022-08-03T04:54:26;10.63;;;5.22;;
63032;SDS011;49121;38.932;-9.018;2022-08-03T04:56:52;9.10;;;5.75;;
63032;SDS011;49121;38.932;-9.018;2022-08-03T04:59:16;11.00;;;5.82;;
63032;SDS011;49121;38.932;-9.018;2022-08-03T05:01:16;12.63;;;6.05;;
63032;SDS011;49121;38.932;-9.018;2022-08-03T05:03:19;10.07;;;5.20;;
63032;SDS011;49121;38.932;-9.018;2022-08-03T05:05:38;9.02;;;5.47;;
63032;SDS011;49121;38.932;-9.018;2022-08-03T05:13:14;10.15;;;5.20;;
63032;SDS011;49121;38.932;-9.018;2022-08-03T05:15:34;8.88;;;4.40;;
63032;SDS011;49121;38.932;-9.018;2022-08-03T05:17:35;8.05;;;4.07;;
63032;SDS011;49121;38.932;-9.018;2022-08-03T05:19:39;9.50;;;4.90;;
63032;SDS011;49121;38.932;-9.018;2022-08-03T05:21:40;7.72;;;4.28;;
63032;SDS011;49121;38.932;-9.018;2022-08-03T05:23:40;6.15;;;4.35;;
63032;SDS011;49121;38.932;-9.018;2022-08-03T05:25:42;8.20;;;5.00;;
63032;SDS011;49121;38.932;-9.018;2022-08-03T05:27:42;7.95;;;5.15;;
63032;SDS011;49121;38.932;-9.018;2022-08-03T05:29:49;7.93;;;4.43;;
63032;SDS011;49121;38.932;-9.018;2022-08-03T05:31:50;8.75;;;4.88;;
63032;SDS011;49121;38.932;-9.018;2022-08-03T05:33:51;10.38;;;4.90;;
63032;SDS011;49121;38.932;-9.018;2022-08-03T05:36:12;7.82;;;4.45;;
63032;SDS011;49121;38.932;-9.018;2022-08-03T05:38:12;7.13;;;4.57;;
63032;SDS011;49121;38.932;-9.018;2022-08-03T05:40:16;9.00;;;5.03;;
63032;SDS011;49121;38.932;-9.018;2022-08-03T05:42:17;10.32;;;5.15;;
63032;SDS011;49121;38.932;-9.018;2022-08-03T05:44:17;8.00;;;5.07;;
63032;SDS011;49121;38.932;-9.018;2022-08-03T05:46:18;9.50;;;4.70;;
63032;SDS011;49121;38.932;-9.018;2022-08-03T05:48:20;9.55;;;5.07;;
63032;SDS011;49121;38.932;-9.018;2022-08-03T05:50:20;7.28;;;4.60;;
63032;SDS011;49121;38.932;-9.018;2022-08-03T05:52:40;8.35;;;5.00;;
63032;SDS011;49121;38.932;-9.018;2022-08-03T05:55:00;6.28;;;4.80;;
63032;SDS011;49121;38.932;-9.018;2022-08-03T05:57:19;16.13;;;5.20;;
63032;SDS011;49121;38.932;-9.018;2022-08-03T05:59:24;9.68;;;5.40;;
63032;SDS011;49121;38.932;-9.018;2022-08-03T06:01:25;7.75;;;4.68;;
63032;SDS011;49121;38.932;-9.018;2022-08-03T06:05:46;9.55;;;5.32;;
63032;SDS011;49121;38.932;-9.018;2022-08-03T06:10:43;10.25;;;5.25;;
63032;SDS011;49121;38.932;-9.018;2022-08-03T06:12:43;9.02;;;4.65;;
63032;SDS011;49121;38.932;-9.018;2022-08-03T06:14:46;10.40;;;4.75;;
63032;SDS011;49121;38.932;-9.018;2022-08-03T06:16:47;7.55;;;5.00;;
63032;SDS011;49121;38.932;-9.018;2022-08-03T06:18:48;8.00;;;4.60;;
63032;SDS011;49121;38.932;-9.018;2022-08-03T06:20:49;10.27;;;5.05;;
63032;SDS011;49121;38.932;-9.018;2022-08-03T06:22:50;6.63;;;4.30;;
63032;SDS011;49121;38.932;-9.018;2022-08-03T06:24:51;6.22;;;3.83;;
63032;SDS011;49121;38.932;-9.018;2022-08-03T06:26:51;8.68;;;4.78;;
63032;SDS011;49121;38.932;-9.018;2022-08-03T06:28:52;7.80;;;4.38;;
63032;SDS011;49121;38.932;-9.018;2022-08-03T06:30:53;6.55;;;3.53;;
63032;SDS011;49121;38.932;-9.018;2022-08-03T06:32:54;6.38;;;4.22;;
63032;SDS011;49121;38.932;-9.018;2022-08-03T06:34:55;9.00;;;4.15;;
63032;SDS011;49121;38.932;-9.018;2022-08-03T06:37:43;5.43;;;4.22;;
63032;SDS011;49121;38.932;-9.018;2022-08-03T06:39:50;5.90;;;3.63;;
63032;SDS011;49121;38.932;-9.018;2022-08-03T06:41:51;6.90;;;3.90;;
63032;SDS011;49121;38.932;-9.018;2022-08-03T06:44:19;8.07;;;3.92;;
63032;SDS011;49121;38.932;-9.018;2022-08-03T06:46:20;8.60;;;4.32;;
63032;SDS011;49121;38.932;-9.018;2022-08-03T06:48:21;8.77;;;4.10;;
63032;SDS011;49121;38.932;-9.018;2022-08-03T06:50:22;8.52;;;3.67;;
63032;SDS011;49121;38.932;-9.018;2022-08-03T06:52:22;12.35;;;4.40;;
63032;SDS011;49121;38.932;-9.018;2022-08-03T06:54:23;6.47;;;3.55;;
63032;SDS011;49121;38.932;-9.018;2022-08-03T06:56:24;7.43;;;3.80;;
63032;SDS011;49121;38.932;-9.018;2022-08-03T06:58:24;6.82;;;3.92;;
63032;SDS011;49121;38.932;-9.018;2022-08-03T07:00:25;8.00;;;3.83;;
63032;SDS011;49121;38.932;-9.018;2022-08-03T07:02:27;6.70;;;3.80;;
63032;SDS011;49121;38.932;-9.018;2022-08-03T07:04:29;8.45;;;4.25;;
63032;SDS011;49121;38.932;-9.018;2022-08-03T07:06:29;9.85;;;4.10;;
63032;SDS011;49121;38.932;-9.018;2022-08-03T07:08:30;6.93;;;3.78;;
63032;SDS011;49121;38.932;-9.018;2022-08-03T07:10:31;6.05;;;3.80;;
63032;SDS011;49121;38.932;-9.018;2022-08-03T07:12:32;5.47;;;4.10;;
63032;SDS011;49121;38.932;-9.018;2022-08-03T07:14:33;7.18;;;3.85;;
63032;SDS011;49121;38.932;-9.018;2022-08-03T07:16:34;7.43;;;4.35;;
63032;SDS011;49121;38.932;-9.018;2022-08-03T07:18:38;10.10;;;4.57;;
63032;SDS011;49121;38.932;-9.018;2022-08-03T07:20:39;10.18;;;4.35;;
63032;SDS011;49121;38.932;-9.018;2022-08-03T07:22:43;6.95;;;4.35;;
63032;SDS011;49121;38.932;-9.018;2022-08-03T07:24:44;10.90;;;5.38;;
63032;SDS011;49121;38.932;-9.018;2022-08-03T07:26:46;8.07;;;5.07;;
63032;SDS011;49121;38.932;-9.018;2022-08-03T07:28:47;10.25;;;4.70;;
63032;SDS011;49121;38.932;-9.018;2022-08-03T07:30:48;9.32;;;4.75;;
63032;SDS011;49121;38.932;-9.018;2022-08-03T07:32:48;9.32;;;4.57;;
63032;SDS011;49121;38.932;-9.018;2022-08-03T07:34:49;6.95;;;4.78;;
63032;SDS011;49121;38.932;-9.018;2022-08-03T07:36:50;8.90;;;5.32;;
63032;SDS011;49121;38.932;-9.018;2022-08-03T07:38:51;10.02;;;5.32;;
63032;SDS011;49121;38.932;-9.018;2022-08-03T07:40:52;10.35;;;5.65;;
63032;SDS011;49121;38.932;-9.018;2022-08-03T07:42:53;7.40;;;4.72;;
63032;SDS011;49121;38.932;-9.018;2022-08-03T07:44:54;9.00;;;4.63;;
63032;SDS011;49121;38.932;-9.018;2022-08-03T07:47:17;10.10;;;5.03;;
63032;SDS011;49121;38.932;-9.018;2022-08-03T07:49:25;10.68;;;5.03;;
63032;SDS011;49121;38.932;-9.018;2022-08-03T07:51:25;12.35;;;5.43;;
63032;SDS011;49121;38.932;-9.018;2022-08-03T07:53:26;12.32;;;4.80;;
63032;SDS011;49121;38.932;-9.018;2022-08-03T07:55:27;9.00;;;4.45;;
63032;SDS011;49121;38.932;-9.018;2022-08-03T07:57:27;13.85;;;4.97;;
63032;SDS011;49121;38.932;-9.018;2022-08-03T07:59:28;9.77;;;4.72;;
63032;SDS011;49121;38.932;-9.018;2022-08-03T08:01:29;11.93;;;5.15;;
63032;SDS011;49121;38.932;-9.018;2022-08-03T08:03:31;9.52;;;4.47;;
63032;SDS011;49121;38.932;-9.018;2022-08-03T08:05:32;10.57;;;5.47;;
63032;SDS011;49121;38.932;-9.018;2022-08-03T08:07:33;11.70;;;5.18;;
63032;SDS011;49121;38.932;-9.018;2022-08-03T08:09:34;10.15;;;4.30;;
63032;SDS011;49121;38.932;-9.018;2022-08-03T08:11:35;10.85;;;4.93;;
63032;SDS011;49121;38.932;-9.018;2022-08-03T08:13:36;13.23;;;4.93;;
63032;SDS011;49121;38.932;-9.018;2022-08-03T08:15:37;15.77;;;9.73;;
63032;SDS011;49121;38.932;-9.018;2022-08-03T08:17:46;11.25;;;4.90;;
63032;SDS011;49121;38.932;-9.018;2022-08-03T08:19:50;11.07;;;4.38;;
63032;SDS011;49121;38.932;-9.018;2022-08-03T08:21:51;9.18;;;4.72;;
63032;SDS011;49121;38.932;-9.018;2022-08-03T08:26:11;9.45;;;4.95;;
63032;SDS011;49121;38.932;-9.018;2022-08-03T08:28:20;8.77;;;4.90;;
63032;SDS011;49121;38.932;-9.018;2022-08-03T08:30:22;9.65;;;4.90;;
63032;SDS011;49121;38.932;-9.018;2022-08-03T08:32:42;9.63;;;5.18;;
63032;SDS011;49121;38.932;-9.018;2022-08-03T08:34:43;8.52;;;4.68;;
63032;SDS011;49121;38.932;-9.018;2022-08-03T08:36:43;10.82;;;5.03;;
63032;SDS011;49121;38.932;-9.018;2022-08-03T08:38:44;10.27;;;4.53;;
63032;SDS011;49121;38.932;-9.018;2022-08-03T08:40:45;6.10;;;4.05;;
63032;SDS011;49121;38.932;-9.018;2022-08-03T08:42:45;10.15;;;4.18;;
63032;SDS011;49121;38.932;-9.018;2022-08-03T08:44:46;10.65;;;3.95;;
63032;SDS011;49121;38.932;-9.018;2022-08-03T08:46:48;11.95;;;5.05;;
63032;SDS011;49121;38.932;-9.018;2022-08-03T08:48:52;6.45;;;3.97;;
63032;SDS011;49121;38.932;-9.018;2022-08-03T08:50:54;9.48;;;3.92;;
63032;SDS011;49121;38.932;-9.018;2022-08-03T08:52:56;11.57;;;3.83;;
63032;SDS011;49121;38.932;-9.018;2022-08-03T08:55:03;7.90;;;3.70;;
63032;SDS011;49121;38.932;-9.018;2022-08-03T08:57:06;8.15;;;3.40;;
63032;SDS011;49121;38.932;-9.018;2022-08-03T08:59:09;9.60;;;3.38;;
63032;SDS011;49121;38.932;-9.018;2022-08-03T09:01:09;5.80;;;3.40;;
63032;SDS011;49121;38.932;-9.018;2022-08-03T09:03:10;5.72;;;2.90;;
63032;SDS011;49121;38.932;-9.018;2022-08-03T09:05:15;7.28;;;3.22;;
63032;SDS011;49121;38.932;-9.018;2022-08-03T09:07:17;7.75;;;3.30;;
63032;SDS011;49121;38.932;-9.018;2022-08-03T09:09:18;6.32;;;3.45;;
63032;SDS011;49121;38.932;-9.018;2022-08-03T09:11:22;11.32;;;3.50;;
63032;SDS011;49121;38.932;-9.018;2022-08-03T09:13:23;6.60;;;3.45;;
63032;SDS011;49121;38.932;-9.018;2022-08-03T09:15:25;7.30;;;3.00;;
63032;SDS011;49121;38.932;-9.018;2022-08-03T09:17:38;10.60;;;3.67;;
63032;SDS011;49121;38.932;-9.018;2022-08-03T09:19:39;5.05;;;3.00;;
63032;SDS011;49121;38.932;-9.018;2022-08-03T09:21:41;5.75;;;3.15;;
63032;SDS011;49121;38.932;-9.018;2022-08-03T09:23:42;3.92;;;3.00;;
63032;SDS011;49121;38.932;-9.018;2022-08-03T09:25:47;5.78;;;3.40;;
63032;SDS011;49121;38.932;-9.018;2022-08-03T09:28:14;4.85;;;3.40;;
63032;SDS011;49121;38.932;-9.018;2022-08-03T09:30:17;4.60;;;3.22;;
63032;SDS011;49121;38.932;-9.018;2022-08-03T09:32:19;5.45;;;3.42;;
63032;SDS011;49121;38.932;-9.018;2022-08-03T09:34:24;3.83;;;2.97;;
63032;SDS011;49121;38.932;-9.018;2022-08-03T09:36:40;5.20;;;2.50;;
63032;SDS011;49121;38.932;-9.018;2022-08-03T09:38:42;6.18;;;2.78;;
63032;SDS011;49121;38.932;-9.018;2022-08-03T09:41:02;5.65;;;2.97;;
63032;SDS011;49121;38.932;-9.018;2022-08-03T09:43:18;5.00;;;2.08;;
63032;SDS011;49121;38.932;-9.018;2022-08-03T09:45:25;5.60;;;2.55;;
63032;SDS011;49121;38.932;-9.018;2022-08-03T09:52:28;2.88;;;1.83;;
63032;SDS011;49121;38.932;-9.018;2022-08-03T09:54:55;4.00;;;2.15;;
63032;SDS011;49121;38.932;-9.018;2022-08-03T09:56:56;4.47;;;2.10;;
63032;SDS011;49121;38.932;-9.018;2022-08-03T09:59:29;2.70;;;2.10;;
63032;SDS011;49121;38.932;-9.018;2022-08-03T10:01:34;5.85;;;2.20;;
63032;SDS011;49121;38.932;-9.018;2022-08-03T10:03:37;3.70;;;2.05;;
63032;SDS011;49121;38.932;-9.018;2022-08-03T10:05:38;4.20;;;2.35;;
63032;SDS011;49121;38.932;-9.018;2022-08-03T10:07:44;3.55;;;2.45;;
63032;SDS011;49121;38.932;-9.018;2022-08-03T10:09:56;4.03;;;1.98;;
63032;SDS011;49121;38.932;-9.018;2022-08-03T10:12:07;4.50;;;2.17;;
63032;SDS011;49121;38.932;-9.018;2022-08-03T10:14:09;7.75;;;2.58;;
63032;SDS011;49121;38.932;-9.018;2022-08-03T10:16:17;3.88;;;2.20;;
63032;SDS011;49121;38.932;-9.018;2022-08-03T10:18:18;4.53;;;2.55;;
63032;SDS011;49121;38.932;-9.018;2022-08-03T10:20:23;4.13;;;2.20;;
63032;SDS011;49121;38.932;-9.018;2022-08-03T10:22:29;3.40;;;2.67;;
63032;SDS011;49121;38.932;-9.018;2022-08-03T10:24:33;4.40;;;2.42;;
63032;SDS011;49121;38.932;-9.018;2022-08-03T10:26:37;5.65;;;2.40;;
63032;SDS011;49121;38.932;-9.018;2022-08-03T10:28:58;6.05;;;2.90;;
63032;SDS011;49121;38.932;-9.018;2022-08-03T10:31:02;3.22;;;2.78;;
63032;SDS011;49121;38.932;-9.018;2022-08-03T10:33:12;3.40;;;2.60;;
63032;SDS011;49121;38.932;-9.018;2022-08-03T10:35:18;3.63;;;2.50;;
63032;SDS011;49121;38.932;-9.018;2022-08-03T10:37:20;2.55;;;2.20;;
63032;SDS011;49121;38.932;-9.018;2022-08-03T10:39:26;3.97;;;2.47;;
63032;SDS011;49121;38.932;-9.018;2022-08-03T10:41:33;5.22;;;2.65;;
63032;SDS011;49121;38.932;-9.018;2022-08-03T10:43:46;3.95;;;2.53;;
63032;SDS011;49121;38.932;-9.018;2022-08-03T10:45:49;3.00;;;2.60;;
63032;SDS011;49121;38.932;-9.018;2022-08-03T10:47:51;4.60;;;2.55;;
63032;SDS011;49121;38.932;-9.018;2022-08-03T10:49:54;5.22;;;2.78;;
63032;SDS011;49121;38.932;-9.018;2022-08-03T10:51:55;2.80;;;2.30;;
63032;SDS011;49121;38.932;-9.018;2022-08-03T10:53:57;3.92;;;2.83;;
63032;SDS011;49121;38.932;-9.018;2022-08-03T10:55:58;4.60;;;2.70;;
63032;SDS011;49121;38.932;-9.018;2022-08-03T11:00:47;4.15;;;2.85;;
63032;SDS011;49121;38.932;-9.018;2022-08-03T11:05:25;5.20;;;2.70;;
63032;SDS011;49121;38.932;-9.018;2022-08-03T11:07:27;5.22;;;3.10;;
63032;SDS011;49121;38.932;-9.018;2022-08-03T11:09:28;3.75;;;2.80;;
63032;SDS011;49121;38.932;-9.018;2022-08-03T11:11:42;5.43;;;3.10;;
63032;SDS011;49121;38.932;-9.018;2022-08-03T11:16:17;6.65;;;3.05;;
63032;SDS011;49121;38.932;-9.018;2022-08-03T11:18:54;3.40;;;2.67;;
63032;SDS011;49121;38.932;-9.018;2022-08-03T11:20:59;5.65;;;2.95;;
63032;SDS011;49121;38.932;-9.018;2022-08-03T11:22:59;9.20;;;3.22;;
63032;SDS011;49121;38.932;-9.018;2022-08-03T11:25:02;11.80;;;3.00;;
63032;SDS011;49121;38.932;-9.018;2022-08-03T11:27:22;4.32;;;3.25;;
63032;SDS011;49121;38.932;-9.018;2022-08-03T11:29:28;5.88;;;3.30;;
63032;SDS011;49121;38.932;-9.018;2022-08-03T11:33:30;5.45;;;3.08;;
63032;SDS011;49121;38.932;-9.018;2022-08-03T11:35:32;5.47;;;3.38;;
63032;SDS011;49121;38.932;-9.018;2022-08-03T11:40:06;6.68;;;4.00;;
63032;SDS011;49121;38.932;-9.018;2022-08-03T11:44:46;5.43;;;3.90;;
63032;SDS011;49121;38.932;-9.018;2022-08-03T11:46:57;6.63;;;3.85;;
63032;SDS011;49121;38.932;-9.018;2022-08-03T11:49:03;5.85;;;3.80;;
63032;SDS011;49121;38.932;-9.018;2022-08-03T11:51:18;4.50;;;3.38;;
63032;SDS011;49121;38.932;-9.018;2022-08-03T11:53:19;5.82;;;3.85;;
63032;SDS011;49121;38.932;-9.018;2022-08-03T11:55:20;5.30;;;3.95;;
63032;SDS011;49121;38.932;-9.018;2022-08-03T11:57:33;5.10;;;3.63;;
63032;SDS011;49121;38.932;-9.018;2022-08-03T11:59:35;6.90;;;3.65;;
63032;SDS011;49121;38.932;-9.018;2022-08-03T12:01:37;6.30;;;3.55;;
63032;SDS011;49121;38.932;-9.018;2022-08-03T12:03:39;9.23;;;4.07;;
63032;SDS011;49121;38.932;-9.018;2022-08-03T12:05:43;7.50;;;3.45;;
63032;SDS011;49121;38.932;-9.018;2022-08-03T12:07:51;7.25;;;3.65;;
63032;SDS011;49121;38.932;-9.018;2022-08-03T12:10:05;6.70;;;4.13;;
63032;SDS011;49121;38.932;-9.018;2022-08-03T12:12:08;11.93;;;3.33;;
63032;SDS011;49121;38.932;-9.018;2022-08-03T12:14:09;5.25;;;3.33;;
63032;SDS011;49121;38.932;-9.018;2022-08-03T12:16:17;5.10;;;3.47;;
63032;SDS011;49121;38.932;-9.018;2022-08-03T12:21:07;6.78;;;3.58;;
63032;SDS011;49121;38.932;-9.018;2022-08-03T12:23:10;6.53;;;3.47;;
63032;SDS011;49121;38.932;-9.018;2022-08-03T12:25:19;8.02;;;3.55;;
63032;SDS011;49121;38.932;-9.018;2022-08-03T12:27:24;6.68;;;3.45;;
63032;SDS011;49121;38.932;-9.018;2022-08-03T12:29:28;8.07;;;3.70;;
63032;SDS011;49121;38.932;-9.018;2022-08-03T12:31:29;8.48;;;3.65;;
63032;SDS011;49121;38.932;-9.018;2022-08-03T12:33:30;7.50;;;3.28;;
63032;SDS011;49121;38.932;-9.018;2022-08-03T12:35:32;4.85;;;3.08;;
63032;SDS011;49121;38.932;-9.018;2022-08-03T12:37:33;8.07;;;3.95;;
63032;SDS011;49121;38.932;-9.018;2022-08-03T12:39:33;7.13;;;3.78;;
63032;SDS011;49121;38.932;-9.018;2022-08-03T12:41:35;5.68;;;3.85;;
63032;SDS011;49121;38.932;-9.018;2022-08-03T12:43:37;7.90;;;4.25;;
63032;SDS011;49121;38.932;-9.018;2022-08-03T12:45:47;6.78;;;4.03;;
63032;SDS011;49121;38.932;-9.018;2022-08-03T12:47:58;6.18;;;4.15;;
63032;SDS011;49121;38.932;-9.018;2022-08-03T12:50:00;5.10;;;4.18;;
63032;SDS011;49121;38.932;-9.018;2022-08-03T12:52:00;6.57;;;3.97;;
63032;SDS011;49121;38.932;-9.018;2022-08-03T12:54:02;8.40;;;4.38;;
63032;SDS011;49121;38.932;-9.018;2022-08-03T12:56:04;7.35;;;4.85;;
63032;SDS011;49121;38.932;-9.018;2022-08-03T12:58:06;7.15;;;4.50;;
63032;SDS011;49121;38.932;-9.018;2022-08-03T13:00:10;9.07;;;4.18;;
63032;SDS011;49121;38.932;-9.018;2022-08-03T13:04:27;5.90;;;3.78;;
63032;SDS011;49121;38.932;-9.018;2022-08-03T13:06:30;12.48;;;4.07;;
63032;SDS011;49121;38.932;-9.018;2022-08-03T13:08:30;12.15;;;4.47;;
63032;SDS011;49121;38.932;-9.018;2022-08-03T13:10:31;8.05;;;4.20;;
63032;SDS011;49121;38.932;-9.018;2022-08-03T13:12:32;5.50;;;3.70;;
63032;SDS011;49121;38.932;-9.018;2022-08-03T13:15:04;8.63;;;4.28;;
63032;SDS011;49121;38.932;-9.018;2022-08-03T13:17:05;7.28;;;3.95;;
63032;SDS011;49121;38.932;-9.018;2022-08-03T13:19:06;7.75;;;3.50;;
63032;SDS011;49121;38.932;-9.018;2022-08-03T13:21:09;8.27;;;3.67;;
63032;SDS011;49121;38.932;-9.018;2022-08-03T13:23:10;6.95;;;3.25;;
63032;SDS011;49121;38.932;-9.018;2022-08-03T13:25:11;4.95;;;3.47;;
63032;SDS011;49121;38.932;-9.018;2022-08-03T13:27:11;6.63;;;3.88;;
63032;SDS011;49121;38.932;-9.018;2022-08-03T13:29:12;6.95;;;3.80;;